sensor_id;sensor_type;location;lat;lon;timestamp;P1;durP1;ratioP1;P2;durP2;ratioP2
21647;SDS011;10985;54.182;7.890;2024-03-08T00:00:26;18.90;;;13.25;;
21647;SDS011;10985;54.182;7.890;2024-03-08T00:02:52;14.15;;;11.52;;
21647;SDS011;10985;54.182;7.890;2024-03-08T00:05:17;17.30;;;12.40;;
21647;SDS011;10985;54.182;7.890;2024-03-08T00:07:43;16.27;;;12.50;;
21647;SDS011;10985;54.182;7.890;2024-03-08T00:10:09;17.52;;;12.77;;
21647;SDS011;10985;54.182;7.890;2024-03-08T00:12:40;16.60;;;11.88;;
21647;SDS011;10985;54.182;7.890;2024-03-08T00:15:07;14.77;;;12.32;;
21647;SDS011;10985;54.182;7.890;2024-03-08T00:17:38;14.27;;;11.98;;
21647;SDS011;10985;54.182;7.890;2024-03-08T00:20:05;17.48;;;12.85;;
21647;SDS011;10985;54.182;7.890;2024-03-08T00:22:33;16.02;;;12.40;;
21647;SDS011;10985;54.182;7.890;2024-03-08T00:25:03;17.95;;;13.18;;
21647;SDS011;10985;54.182;7.890;2024-03-08T00:27:35;17.30;;;12.35;;
21647;SDS011;10985;54.182;7.890;2024-03-08T00:30:01;16.08;;;12.70;;
21647;SDS011;10985;54.182;7.890;2024-03-08T00:32:27;15.93;;;11.77;;
21647;SDS011;10985;54.182;7.890;2024-03-08T00:34:53;15.70;;;12.48;;
21647;SDS011;10985;54.182;7.890;2024-03-08T00:37:19;17.38;;;13.27;;
21647;SDS011;10985;54.182;7.890;2024-03-08T00:39:46;17.70;;;12.98;;
21647;SDS011;10985;54.182;7.890;2024-03-08T00:42:12;16.48;;;12.65;;
21647;SDS011;10985;54.182;7.890;2024-03-08T00:44:38;17.42;;;12.90;;
21647;SDS011;10985;54.182;7.890;2024-03-08T00:47:05;19.35;;;12.68;;
21647;SDS011;10985;54.182;7.890;2024-03-08T00:49:30;17.17;;;13.27;;
21647;SDS011;10985;54.182;7.890;2024-03-08T00:51:56;16.95;;;12.65;;
21647;SDS011;10985;54.182;7.890;2024-03-08T00:54:21;15.90;;;12.35;;
21647;SDS011;10985;54.182;7.890;2024-03-08T00:56:47;18.95;;;12.95;;
21647;SDS011;10985;54.182;7.890;2024-03-08T00:59:12;16.02;;;12.45;;
21647;SDS011;10985;54.182;7.890;2024-03-08T01:01:39;16.38;;;12.45;;
21647;SDS011;10985;54.182;7.890;2024-03-08T01:04:05;17.67;;;12.90;;
21647;SDS011;10985;54.182;7.890;2024-03-08T01:06:30;15.25;;;12.30;;
21647;SDS011;10985;54.182;7.890;2024-03-08T01:08:56;16.42;;;12.32;;
21647;SDS011;10985;54.182;7.890;2024-03-08T01:11:22;17.00;;;12.80;;
21647;SDS011;10985;54.182;7.890;2024-03-08T01:13:47;17.67;;;12.68;;
21647;SDS011;10985;54.182;7.890;2024-03-08T01:16:13;18.52;;;12.27;;
21647;SDS011;10985;54.182;7.890;2024-03-08T01:18:38;17.50;;;12.50;;
21647;SDS011;10985;54.182;7.890;2024-03-08T01:21:04;16.52;;;12.30;;
21647;SDS011;10985;54.182;7.890;2024-03-08T01:23:29;15.05;;;11.38;;
21647;SDS011;10985;54.182;7.890;2024-03-08T01:25:55;17.67;;;13.02;;
21647;SDS011;10985;54.182;7.890;2024-03-08T01:28:24;19.17;;;12.77;;
21647;SDS011;10985;54.182;7.890;2024-03-08T01:30:50;19.90;;;13.25;;
21647;SDS011;10985;54.182;7.890;2024-03-08T01:33:20;15.55;;;12.05;;
21647;SDS011;10985;54.182;7.890;2024-03-08T01:35:47;17.73;;;12.05;;
21647;SDS011;10985;54.182;7.890;2024-03-08T01:38:13;16.85;;;12.60;;
21647;SDS011;10985;54.182;7.890;2024-03-08T01:40:38;18.15;;;13.00;;
21647;SDS011;10985;54.182;7.890;2024-03-08T01:43:18;16.52;;;12.75;;
21647;SDS011;10985;54.182;7.890;2024-03-08T01:45:48;16.45;;;12.27;;
21647;SDS011;10985;54.182;7.890;2024-03-08T01:48:17;21.52;;;14.13;;
21647;SDS011;10985;54.182;7.890;2024-03-08T01:50:43;15.80;;;12.48;;
21647;SDS011;10985;54.182;7.890;2024-03-08T01:53:10;18.42;;;12.77;;
21647;SDS011;10985;54.182;7.890;2024-03-08T01:55:36;17.35;;;12.43;;
21647;SDS011;10985;54.182;7.890;2024-03-08T01:58:06;16.58;;;12.73;;
21647;SDS011;10985;54.182;7.890;2024-03-08T02:00:35;17.30;;;12.60;;
21647;SDS011;10985;54.182;7.890;2024-03-08T02:03:01;16.73;;;12.88;;
21647;SDS011;10985;54.182;7.890;2024-03-08T02:05:27;18.25;;;13.38;;
21647;SDS011;10985;54.182;7.890;2024-03-08T02:07:53;15.20;;;11.98;;
21647;SDS011;10985;54.182;7.890;2024-03-08T02:10:19;17.65;;;12.48;;
21647;SDS011;10985;54.182;7.890;2024-03-08T02:12:46;16.38;;;12.75;;
21647;SDS011;10985;54.182;7.890;2024-03-08T02:18:33;16.45;;;12.30;;
21647;SDS011;10985;54.182;7.890;2024-03-08T02:20:59;15.18;;;12.48;;
21647;SDS011;10985;54.182;7.890;2024-03-08T02:23:27;18.70;;;13.57;;
21647;SDS011;10985;54.182;7.890;2024-03-08T02:25:53;18.63;;;12.45;;
21647;SDS011;10985;54.182;7.890;2024-03-08T02:28:20;15.82;;;12.43;;
21647;SDS011;10985;54.182;7.890;2024-03-08T02:30:46;13.57;;;11.32;;
21647;SDS011;10985;54.182;7.890;2024-03-08T02:33:15;16.65;;;12.60;;
21647;SDS011;10985;54.182;7.890;2024-03-08T02:35:42;14.95;;;12.73;;
21647;SDS011;10985;54.182;7.890;2024-03-08T02:38:10;17.13;;;12.45;;
21647;SDS011;10985;54.182;7.890;2024-03-08T02:40:43;18.40;;;13.18;;
21647;SDS011;10985;54.182;7.890;2024-03-08T02:43:10;15.38;;;12.95;;
21647;SDS011;10985;54.182;7.890;2024-03-08T02:45:36;17.10;;;12.60;;
21647;SDS011;10985;54.182;7.890;2024-03-08T02:48:02;14.18;;;11.90;;
21647;SDS011;10985;54.182;7.890;2024-03-08T02:50:28;15.25;;;12.52;;
21647;SDS011;10985;54.182;7.890;2024-03-08T02:52:53;18.80;;;12.57;;
21647;SDS011;10985;54.182;7.890;2024-03-08T02:55:19;18.33;;;13.40;;
21647;SDS011;10985;54.182;7.890;2024-03-08T02:57:45;16.73;;;12.95;;
21647;SDS011;10985;54.182;7.890;2024-03-08T03:00:14;16.48;;;13.15;;
21647;SDS011;10985;54.182;7.890;2024-03-08T03:02:40;17.73;;;13.63;;
21647;SDS011;10985;54.182;7.890;2024-03-08T03:05:07;17.20;;;12.80;;
21647;SDS011;10985;54.182;7.890;2024-03-08T03:07:34;16.13;;;12.60;;
21647;SDS011;10985;54.182;7.890;2024-03-08T03:10:00;15.30;;;12.50;;
21647;SDS011;10985;54.182;7.890;2024-03-08T03:12:27;16.88;;;12.55;;
21647;SDS011;10985;54.182;7.890;2024-03-08T03:14:53;16.27;;;12.18;;
21647;SDS011;10985;54.182;7.890;2024-03-08T03:17:19;18.25;;;13.80;;
21647;SDS011;10985;54.182;7.890;2024-03-08T03:19:45;18.30;;;13.15;;
21647;SDS011;10985;54.182;7.890;2024-03-08T03:22:11;17.92;;;13.00;;
21647;SDS011;10985;54.182;7.890;2024-03-08T03:24:37;16.98;;;13.77;;
21647;SDS011;10985;54.182;7.890;2024-03-08T03:27:03;17.77;;;13.48;;
21647;SDS011;10985;54.182;7.890;2024-03-08T03:29:35;18.58;;;12.82;;
21647;SDS011;10985;54.182;7.890;2024-03-08T03:32:01;16.25;;;11.60;;
21647;SDS011;10985;54.182;7.890;2024-03-08T03:34:28;16.92;;;13.27;;
21647;SDS011;10985;54.182;7.890;2024-03-08T03:36:54;17.08;;;12.80;;
21647;SDS011;10985;54.182;7.890;2024-03-08T03:39:20;19.35;;;12.32;;
21647;SDS011;10985;54.182;7.890;2024-03-08T03:41:47;15.80;;;12.38;;
21647;SDS011;10985;54.182;7.890;2024-03-08T03:44:16;16.65;;;12.77;;
21647;SDS011;10985;54.182;7.890;2024-03-08T03:46:42;15.02;;;11.82;;
21647;SDS011;10985;54.182;7.890;2024-03-08T03:49:11;16.65;;;12.23;;
21647;SDS011;10985;54.182;7.890;2024-03-08T03:51:37;14.90;;;12.32;;
21647;SDS011;10985;54.182;7.890;2024-03-08T03:54:03;16.33;;;12.93;;
21647;SDS011;10985;54.182;7.890;2024-03-08T03:56:28;17.15;;;13.07;;
21647;SDS011;10985;54.182;7.890;2024-03-08T03:58:55;16.20;;;12.30;;
21647;SDS011;10985;54.182;7.890;2024-03-08T04:01:21;16.85;;;12.65;;
21647;SDS011;10985;54.182;7.890;2024-03-08T04:03:47;17.10;;;12.65;;
21647;SDS011;10985;54.182;7.890;2024-03-08T04:06:12;18.88;;;12.80;;
21647;SDS011;10985;54.182;7.890;2024-03-08T04:08:39;15.02;;;12.70;;
21647;SDS011;10985;54.182;7.890;2024-03-08T04:11:04;16.85;;;11.73;;
21647;SDS011;10985;54.182;7.890;2024-03-08T04:13:30;19.02;;;12.60;;
21647;SDS011;10985;54.182;7.890;2024-03-08T04:15:55;16.08;;;12.65;;
21647;SDS011;10985;54.182;7.890;2024-03-08T04:18:21;16.17;;;12.23;;
21647;SDS011;10985;54.182;7.890;2024-03-08T04:20:46;14.23;;;11.68;;
21647;SDS011;10985;54.182;7.890;2024-03-08T04:23:12;16.98;;;12.73;;
21647;SDS011;10985;54.182;7.890;2024-03-08T04:25:38;16.77;;;12.45;;
21647;SDS011;10985;54.182;7.890;2024-03-08T04:28:03;14.32;;;11.68;;
21647;SDS011;10985;54.182;7.890;2024-03-08T04:30:29;17.98;;;12.63;;
21647;SDS011;10985;54.182;7.890;2024-03-08T04:32:55;16.02;;;12.13;;
21647;SDS011;10985;54.182;7.890;2024-03-08T04:35:20;15.07;;;12.18;;
21647;SDS011;10985;54.182;7.890;2024-03-08T04:37:46;17.20;;;12.07;;
21647;SDS011;10985;54.182;7.890;2024-03-08T04:40:11;16.88;;;12.30;;
21647;SDS011;10985;54.182;7.890;2024-03-08T04:42:37;15.32;;;12.20;;
21647;SDS011;10985;54.182;7.890;2024-03-08T04:45:05;15.05;;;11.75;;
21647;SDS011;10985;54.182;7.890;2024-03-08T04:47:33;16.88;;;12.40;;
21647;SDS011;10985;54.182;7.890;2024-03-08T04:49:58;17.98;;;12.68;;
21647;SDS011;10985;54.182;7.890;2024-03-08T04:52:24;18.15;;;13.10;;
21647;SDS011;10985;54.182;7.890;2024-03-08T04:54:51;19.27;;;12.95;;
21647;SDS011;10985;54.182;7.890;2024-03-08T04:57:17;16.42;;;12.35;;
21647;SDS011;10985;54.182;7.890;2024-03-08T04:59:43;14.93;;;12.27;;
21647;SDS011;10985;54.182;7.890;2024-03-08T05:02:08;15.57;;;11.60;;
21647;SDS011;10985;54.182;7.890;2024-03-08T05:04:34;15.50;;;12.23;;
21647;SDS011;10985;54.182;7.890;2024-03-08T05:07:00;16.23;;;12.15;;
21647;SDS011;10985;54.182;7.890;2024-03-08T05:09:26;19.15;;;12.40;;
21647;SDS011;10985;54.182;7.890;2024-03-08T05:11:54;16.60;;;11.93;;
21647;SDS011;10985;54.182;7.890;2024-03-08T05:14:19;16.23;;;12.50;;
21647;SDS011;10985;54.182;7.890;2024-03-08T05:16:45;17.38;;;12.77;;
21647;SDS011;10985;54.182;7.890;2024-03-08T05:19:15;14.63;;;11.65;;
21647;SDS011;10985;54.182;7.890;2024-03-08T05:21:44;16.05;;;12.45;;
21647;SDS011;10985;54.182;7.890;2024-03-08T05:24:13;15.90;;;11.27;;
21647;SDS011;10985;54.182;7.890;2024-03-08T05:26:40;15.55;;;11.85;;
21647;SDS011;10985;54.182;7.890;2024-03-08T05:29:06;14.75;;;11.88;;
21647;SDS011;10985;54.182;7.890;2024-03-08T05:31:45;14.57;;;11.75;;
21647;SDS011;10985;54.182;7.890;2024-03-08T05:34:13;14.75;;;12.00;;
21647;SDS011;10985;54.182;7.890;2024-03-08T05:36:39;16.88;;;12.63;;
21647;SDS011;10985;54.182;7.890;2024-03-08T05:39:05;16.85;;;12.30;;
21647;SDS011;10985;54.182;7.890;2024-03-08T05:41:32;19.88;;;12.68;;
21647;SDS011;10985;54.182;7.890;2024-03-08T05:43:57;16.13;;;12.30;;
21647;SDS011;10985;54.182;7.890;2024-03-08T05:46:23;19.02;;;12.48;;
21647;SDS011;10985;54.182;7.890;2024-03-08T05:48:48;17.80;;;12.00;;
21647;SDS011;10985;54.182;7.890;2024-03-08T05:51:14;16.42;;;12.82;;
21647;SDS011;10985;54.182;7.890;2024-03-08T05:53:40;15.40;;;12.48;;
21647;SDS011;10985;54.182;7.890;2024-03-08T05:56:05;16.83;;;12.27;;
21647;SDS011;10985;54.182;7.890;2024-03-08T05:58:31;16.33;;;12.18;;
21647;SDS011;10985;54.182;7.890;2024-03-08T06:00:56;17.10;;;13.05;;
21647;SDS011;10985;54.182;7.890;2024-03-08T06:03:22;15.25;;;11.80;;
21647;SDS011;10985;54.182;7.890;2024-03-08T06:05:48;15.77;;;11.80;;
21647;SDS011;10985;54.182;7.890;2024-03-08T06:08:14;18.35;;;12.02;;
21647;SDS011;10985;54.182;7.890;2024-03-08T06:10:40;17.77;;;12.75;;
21647;SDS011;10985;54.182;7.890;2024-03-08T06:13:06;15.57;;;12.00;;
21647;SDS011;10985;54.182;7.890;2024-03-08T06:15:31;15.88;;;12.18;;
21647;SDS011;10985;54.182;7.890;2024-03-08T06:17:57;16.20;;;11.52;;
21647;SDS011;10985;54.182;7.890;2024-03-08T06:20:22;18.73;;;12.98;;
21647;SDS011;10985;54.182;7.890;2024-03-08T06:22:51;17.02;;;12.57;;
21647;SDS011;10985;54.182;7.890;2024-03-08T06:25:17;16.95;;;13.13;;
21647;SDS011;10985;54.182;7.890;2024-03-08T06:27:42;15.02;;;11.50;;
21647;SDS011;10985;54.182;7.890;2024-03-08T06:30:08;17.65;;;12.40;;
21647;SDS011;10985;54.182;7.890;2024-03-08T06:32:34;17.25;;;11.93;;
21647;SDS011;10985;54.182;7.890;2024-03-08T06:35:04;16.88;;;12.35;;
21647;SDS011;10985;54.182;7.890;2024-03-08T06:37:31;15.52;;;11.93;;
21647;SDS011;10985;54.182;7.890;2024-03-08T06:40:00;18.88;;;13.23;;
21647;SDS011;10985;54.182;7.890;2024-03-08T06:42:27;17.05;;;12.40;;
21647;SDS011;10985;54.182;7.890;2024-03-08T06:44:53;16.38;;;12.13;;
21647;SDS011;10985;54.182;7.890;2024-03-08T06:47:21;16.48;;;12.02;;
21647;SDS011;10985;54.182;7.890;2024-03-08T06:49:46;16.15;;;12.23;;
21647;SDS011;10985;54.182;7.890;2024-03-08T06:52:12;17.33;;;12.23;;
21647;SDS011;10985;54.182;7.890;2024-03-08T06:54:37;15.32;;;11.60;;
21647;SDS011;10985;54.182;7.890;2024-03-08T06:57:03;15.02;;;12.20;;
21647;SDS011;10985;54.182;7.890;2024-03-08T06:59:30;14.48;;;11.85;;
21647;SDS011;10985;54.182;7.890;2024-03-08T07:02:00;15.85;;;12.18;;
21647;SDS011;10985;54.182;7.890;2024-03-08T07:04:26;15.38;;;11.80;;
21647;SDS011;10985;54.182;7.890;2024-03-08T07:06:54;17.33;;;12.02;;
21647;SDS011;10985;54.182;7.890;2024-03-08T07:09:20;15.20;;;11.93;;
21647;SDS011;10985;54.182;7.890;2024-03-08T07:11:46;17.40;;;12.43;;
21647;SDS011;10985;54.182;7.890;2024-03-08T07:14:11;15.95;;;12.40;;
21647;SDS011;10985;54.182;7.890;2024-03-08T07:16:40;18.50;;;13.15;;
21647;SDS011;10985;54.182;7.890;2024-03-08T07:19:06;15.20;;;12.10;;
21647;SDS011;10985;54.182;7.890;2024-03-08T07:21:32;16.73;;;12.80;;
21647;SDS011;10985;54.182;7.890;2024-03-08T07:23:57;17.52;;;12.82;;
21647;SDS011;10985;54.182;7.890;2024-03-08T07:26:25;15.23;;;12.70;;
21647;SDS011;10985;54.182;7.890;2024-03-08T07:28:51;18.17;;;12.95;;
21647;SDS011;10985;54.182;7.890;2024-03-08T07:31:17;16.77;;;13.10;;
21647;SDS011;10985;54.182;7.890;2024-03-08T07:33:45;17.38;;;13.30;;
21647;SDS011;10985;54.182;7.890;2024-03-08T07:36:11;18.83;;;13.23;;
21647;SDS011;10985;54.182;7.890;2024-03-08T07:38:36;19.05;;;13.93;;
21647;SDS011;10985;54.182;7.890;2024-03-08T07:41:02;17.80;;;12.70;;
21647;SDS011;10985;54.182;7.890;2024-03-08T07:43:27;17.73;;;13.52;;
21647;SDS011;10985;54.182;7.890;2024-03-08T07:45:53;17.50;;;13.43;;
21647;SDS011;10985;54.182;7.890;2024-03-08T07:48:20;19.67;;;13.65;;
21647;SDS011;10985;54.182;7.890;2024-03-08T07:50:46;19.90;;;13.43;;
21647;SDS011;10985;54.182;7.890;2024-03-08T07:53:11;19.88;;;14.00;;
21647;SDS011;10985;54.182;7.890;2024-03-08T07:55:37;18.80;;;13.63;;
21647;SDS011;10985;54.182;7.890;2024-03-08T07:58:04;19.63;;;14.15;;
21647;SDS011;10985;54.182;7.890;2024-03-08T08:00:31;23.08;;;15.27;;
21647;SDS011;10985;54.182;7.890;2024-03-08T08:02:56;22.33;;;14.88;;
21647;SDS011;10985;54.182;7.890;2024-03-08T08:05:22;21.98;;;14.85;;
21647;SDS011;10985;54.182;7.890;2024-03-08T08:07:48;25.13;;;15.60;;
21647;SDS011;10985;54.182;7.890;2024-03-08T08:10:14;26.08;;;16.27;;
21647;SDS011;10985;54.182;7.890;2024-03-08T08:12:46;27.42;;;17.70;;
21647;SDS011;10985;54.182;7.890;2024-03-08T08:15:13;27.73;;;16.85;;
21647;SDS011;10985;54.182;7.890;2024-03-08T08:17:40;26.42;;;16.67;;
21647;SDS011;10985;54.182;7.890;2024-03-08T08:20:06;25.27;;;17.58;;
21647;SDS011;10985;54.182;7.890;2024-03-08T08:22:32;23.02;;;16.55;;
21647;SDS011;10985;54.182;7.890;2024-03-08T08:24:57;26.80;;;18.00;;
21647;SDS011;10985;54.182;7.890;2024-03-08T08:27:23;25.77;;;17.27;;
21647;SDS011;10985;54.182;7.890;2024-03-08T08:29:51;30.77;;;18.15;;
21647;SDS011;10985;54.182;7.890;2024-03-08T08:32:16;33.58;;;19.50;;
21647;SDS011;10985;54.182;7.890;2024-03-08T08:34:43;29.45;;;17.98;;
21647;SDS011;10985;54.182;7.890;2024-03-08T08:37:09;32.10;;;19.02;;
21647;SDS011;10985;54.182;7.890;2024-03-08T08:39:34;28.67;;;18.27;;
21647;SDS011;10985;54.182;7.890;2024-03-08T08:42:00;31.98;;;18.45;;
21647;SDS011;10985;54.182;7.890;2024-03-08T08:44:27;30.77;;;19.90;;
21647;SDS011;10985;54.182;7.890;2024-03-08T08:46:53;27.50;;;18.15;;
21647;SDS011;10985;54.182;7.890;2024-03-08T08:49:18;29.50;;;18.02;;
21647;SDS011;10985;54.182;7.890;2024-03-08T08:51:51;30.08;;;18.90;;
21647;SDS011;10985;54.182;7.890;2024-03-08T08:54:17;29.40;;;18.80;;
21647;SDS011;10985;54.182;7.890;2024-03-08T08:56:43;28.08;;;18.08;;
21647;SDS011;10985;54.182;7.890;2024-03-08T08:59:09;30.27;;;18.73;;
21647;SDS011;10985;54.182;7.890;2024-03-08T09:01:38;29.75;;;19.00;;
21647;SDS011;10985;54.182;7.890;2024-03-08T09:04:04;30.75;;;19.00;;
21647;SDS011;10985;54.182;7.890;2024-03-08T09:06:31;28.50;;;18.85;;
21647;SDS011;10985;54.182;7.890;2024-03-08T09:08:56;27.52;;;18.50;;
21647;SDS011;10985;54.182;7.890;2024-03-08T09:11:22;30.65;;;18.63;;
21647;SDS011;10985;54.182;7.890;2024-03-08T09:13:50;29.52;;;18.75;;
21647;SDS011;10985;54.182;7.890;2024-03-08T09:16:15;28.73;;;18.27;;
21647;SDS011;10985;54.182;7.890;2024-03-08T09:18:41;28.85;;;18.13;;
21647;SDS011;10985;54.182;7.890;2024-03-08T09:21:06;27.67;;;17.83;;
21647;SDS011;10985;54.182;7.890;2024-03-08T09:23:34;29.08;;;18.20;;
21647;SDS011;10985;54.182;7.890;2024-03-08T09:26:03;28.88;;;18.23;;
21647;SDS011;10985;54.182;7.890;2024-03-08T09:28:29;25.65;;;16.83;;
21647;SDS011;10985;54.182;7.890;2024-03-08T09:30:54;27.98;;;18.42;;
21647;SDS011;10985;54.182;7.890;2024-03-08T09:33:20;26.08;;;17.80;;
21647;SDS011;10985;54.182;7.890;2024-03-08T09:35:46;25.40;;;16.58;;
21647;SDS011;10985;54.182;7.890;2024-03-08T09:38:13;26.02;;;17.73;;
21647;SDS011;10985;54.182;7.890;2024-03-08T09:40:42;26.52;;;18.65;;
21647;SDS011;10985;54.182;7.890;2024-03-08T09:43:09;31.10;;;18.65;;
21647;SDS011;10985;54.182;7.890;2024-03-08T09:45:36;28.85;;;18.95;;
21647;SDS011;10985;54.182;7.890;2024-03-08T09:48:06;27.60;;;18.77;;
21647;SDS011;10985;54.182;7.890;2024-03-08T09:50:39;30.08;;;19.42;;
21647;SDS011;10985;54.182;7.890;2024-03-08T09:53:07;31.13;;;20.23;;
21647;SDS011;10985;54.182;7.890;2024-03-08T09:55:35;34.53;;;20.95;;
21647;SDS011;10985;54.182;7.890;2024-03-08T09:58:02;31.60;;;19.67;;
21647;SDS011;10985;54.182;7.890;2024-03-08T10:00:49;31.38;;;20.70;;
21647;SDS011;10985;54.182;7.890;2024-03-08T10:03:15;32.28;;;20.48;;
21647;SDS011;10985;54.182;7.890;2024-03-08T10:05:41;31.02;;;21.10;;
21647;SDS011;10985;54.182;7.890;2024-03-08T10:08:07;29.65;;;19.70;;
21647;SDS011;10985;54.182;7.890;2024-03-08T10:10:39;32.97;;;19.92;;
21647;SDS011;10985;54.182;7.890;2024-03-08T10:13:05;26.60;;;18.23;;
21647;SDS011;10985;54.182;7.890;2024-03-08T10:15:35;27.60;;;18.83;;
21647;SDS011;10985;54.182;7.890;2024-03-08T10:18:01;26.33;;;18.17;;
21647;SDS011;10985;54.182;7.890;2024-03-08T10:20:27;25.08;;;17.45;;
21647;SDS011;10985;54.182;7.890;2024-03-08T10:22:58;23.02;;;17.58;;
21647;SDS011;10985;54.182;7.890;2024-03-08T10:25:28;21.50;;;17.10;;
21647;SDS011;10985;54.182;7.890;2024-03-08T10:27:55;21.08;;;16.23;;
21647;SDS011;10985;54.182;7.890;2024-03-08T10:30:21;17.90;;;14.73;;
21647;SDS011;10985;54.182;7.890;2024-03-08T10:32:47;19.83;;;15.35;;
21647;SDS011;10985;54.182;7.890;2024-03-08T10:35:13;17.92;;;14.27;;
21647;SDS011;10985;54.182;7.890;2024-03-08T10:37:46;16.25;;;13.23;;
21647;SDS011;10985;54.182;7.890;2024-03-08T10:40:15;16.20;;;13.38;;
21647;SDS011;10985;54.182;7.890;2024-03-08T10:45:49;13.70;;;11.60;;
21647;SDS011;10985;54.182;7.890;2024-03-08T10:48:29;13.77;;;10.73;;
21647;SDS011;10985;54.182;7.890;2024-03-08T10:51:02;14.77;;;11.00;;
21647;SDS011;10985;54.182;7.890;2024-03-08T10:53:28;12.43;;;10.25;;
21647;SDS011;10985;54.182;7.890;2024-03-08T10:55:55;11.02;;;9.52;;
21647;SDS011;10985;54.182;7.890;2024-03-08T10:58:22;10.48;;;9.40;;
21647;SDS011;10985;54.182;7.890;2024-03-08T11:00:54;10.80;;;9.25;;
21647;SDS011;10985;54.182;7.890;2024-03-08T11:06:05;9.60;;;8.60;;
21647;SDS011;10985;54.182;7.890;2024-03-08T11:08:33;9.25;;;8.32;;
21647;SDS011;10985;54.182;7.890;2024-03-08T11:11:00;9.35;;;8.40;;
21647;SDS011;10985;54.182;7.890;2024-03-08T11:13:35;9.10;;;8.20;;
21647;SDS011;10985;54.182;7.890;2024-03-08T11:16:02;7.93;;;7.25;;
21647;SDS011;10985;54.182;7.890;2024-03-08T11:18:34;7.28;;;6.68;;
21647;SDS011;10985;54.182;7.890;2024-03-08T11:21:04;7.13;;;6.53;;
21647;SDS011;10985;54.182;7.890;2024-03-08T11:23:37;7.97;;;7.28;;
21647;SDS011;10985;54.182;7.890;2024-03-08T11:26:03;7.45;;;6.85;;
21647;SDS011;10985;54.182;7.890;2024-03-08T11:28:32;7.57;;;6.88;;
21647;SDS011;10985;54.182;7.890;2024-03-08T11:33:28;7.70;;;6.90;;
21647;SDS011;10985;54.182;7.890;2024-03-08T11:36:11;9.57;;;7.30;;
21647;SDS011;10985;54.182;7.890;2024-03-08T11:38:41;7.05;;;6.45;;
21647;SDS011;10985;54.182;7.890;2024-03-08T11:41:09;8.10;;;7.05;;
21647;SDS011;10985;54.182;7.890;2024-03-08T11:43:39;8.10;;;7.30;;
21647;SDS011;10985;54.182;7.890;2024-03-08T11:46:07;6.78;;;6.03;;
21647;SDS011;10985;54.182;7.890;2024-03-08T11:48:33;7.05;;;6.35;;
21647;SDS011;10985;54.182;7.890;2024-03-08T11:51:00;5.93;;;5.43;;
21647;SDS011;10985;54.182;7.890;2024-03-08T11:53:26;6.50;;;5.75;;
21647;SDS011;10985;54.182;7.890;2024-03-08T11:55:52;6.97;;;6.40;;
21647;SDS011;10985;54.182;7.890;2024-03-08T11:58:18;6.50;;;5.90;;
21647;SDS011;10985;54.182;7.890;2024-03-08T12:00:43;6.85;;;6.25;;
21647;SDS011;10985;54.182;7.890;2024-03-08T12:03:11;5.53;;;5.05;;
21647;SDS011;10985;54.182;7.890;2024-03-08T12:05:37;5.90;;;5.40;;
21647;SDS011;10985;54.182;7.890;2024-03-08T12:08:03;6.30;;;4.60;;
21647;SDS011;10985;54.182;7.890;2024-03-08T12:10:31;5.18;;;4.68;;
21647;SDS011;10985;54.182;7.890;2024-03-08T12:12:58;4.80;;;4.40;;
21647;SDS011;10985;54.182;7.890;2024-03-08T12:15:28;4.50;;;4.10;;
21647;SDS011;10985;54.182;7.890;2024-03-08T12:17:54;4.28;;;3.97;;
21647;SDS011;10985;54.182;7.890;2024-03-08T12:20:21;4.90;;;4.50;;
21647;SDS011;10985;54.182;7.890;2024-03-08T12:22:49;4.55;;;4.15;;
21647;SDS011;10985;54.182;7.890;2024-03-08T12:25:17;4.25;;;3.85;;
21647;SDS011;10985;54.182;7.890;2024-03-08T12:27:43;4.70;;;4.20;;
21647;SDS011;10985;54.182;7.890;2024-03-08T12:30:25;4.50;;;4.10;;
21647;SDS011;10985;54.182;7.890;2024-03-08T12:32:55;5.00;;;4.60;;
21647;SDS011;10985;54.182;7.890;2024-03-08T12:35:22;4.65;;;4.25;;
21647;SDS011;10985;54.182;7.890;2024-03-08T12:37:50;4.38;;;3.97;;
21647;SDS011;10985;54.182;7.890;2024-03-08T12:40:18;4.45;;;4.05;;
21647;SDS011;10985;54.182;7.890;2024-03-08T12:42:47;4.68;;;4.30;;
21647;SDS011;10985;54.182;7.890;2024-03-08T12:45:13;4.10;;;3.80;;
21647;SDS011;10985;54.182;7.890;2024-03-08T12:47:39;4.53;;;4.18;;
21647;SDS011;10985;54.182;7.890;2024-03-08T12:50:07;3.92;;;3.63;;
21647;SDS011;10985;54.182;7.890;2024-03-08T12:52:34;4.50;;;4.20;;
21647;SDS011;10985;54.182;7.890;2024-03-08T12:54:59;4.03;;;3.70;;
21647;SDS011;10985;54.182;7.890;2024-03-08T12:57:31;4.50;;;4.10;;
21647;SDS011;10985;54.182;7.890;2024-03-08T12:59:58;4.55;;;4.15;;
21647;SDS011;10985;54.182;7.890;2024-03-08T13:02:24;4.25;;;3.90;;
21647;SDS011;10985;54.182;7.890;2024-03-08T13:04:51;5.78;;;4.05;;
21647;SDS011;10985;54.182;7.890;2024-03-08T13:07:22;4.35;;;4.05;;
21647;SDS011;10985;54.182;7.890;2024-03-08T13:09:50;4.75;;;4.35;;
21647;SDS011;10985;54.182;7.890;2024-03-08T13:12:24;4.10;;;3.78;;
21647;SDS011;10985;54.182;7.890;2024-03-08T13:14:50;4.38;;;3.97;;
21647;SDS011;10985;54.182;7.890;2024-03-08T13:17:16;4.93;;;4.53;;
21647;SDS011;10985;54.182;7.890;2024-03-08T13:19:43;6.20;;;5.18;;
21647;SDS011;10985;54.182;7.890;2024-03-08T13:22:09;5.38;;;4.90;;
21647;SDS011;10985;54.182;7.890;2024-03-08T13:24:38;6.13;;;4.80;;
21647;SDS011;10985;54.182;7.890;2024-03-08T13:27:13;5.72;;;5.22;;
21647;SDS011;10985;54.182;7.890;2024-03-08T13:29:44;5.05;;;4.65;;
21647;SDS011;10985;54.182;7.890;2024-03-08T13:32:11;6.03;;;5.45;;
21647;SDS011;10985;54.182;7.890;2024-03-08T13:34:37;5.97;;;4.72;;
21647;SDS011;10985;54.182;7.890;2024-03-08T13:37:06;5.50;;;4.95;;
21647;SDS011;10985;54.182;7.890;2024-03-08T13:39:31;5.47;;;4.97;;
21647;SDS011;10985;54.182;7.890;2024-03-08T13:42:05;5.30;;;4.88;;
21647;SDS011;10985;54.182;7.890;2024-03-08T13:44:37;5.93;;;5.35;;
21647;SDS011;10985;54.182;7.890;2024-03-08T13:47:04;5.13;;;4.70;;
21647;SDS011;10985;54.182;7.890;2024-03-08T13:49:30;4.75;;;4.35;;
21647;SDS011;10985;54.182;7.890;2024-03-08T13:51:56;6.35;;;5.10;;
21647;SDS011;10985;54.182;7.890;2024-03-08T13:54:23;4.90;;;4.50;;
21647;SDS011;10985;54.182;7.890;2024-03-08T13:56:49;5.70;;;5.15;;
21647;SDS011;10985;54.182;7.890;2024-03-08T13:59:17;5.70;;;5.28;;
21647;SDS011;10985;54.182;7.890;2024-03-08T14:01:43;6.10;;;5.60;;
21647;SDS011;10985;54.182;7.890;2024-03-08T14:04:08;6.57;;;5.97;;
21647;SDS011;10985;54.182;7.890;2024-03-08T14:06:34;7.32;;;6.65;;
21647;SDS011;10985;54.182;7.890;2024-03-08T14:09:00;8.00;;;6.70;;
21647;SDS011;10985;54.182;7.890;2024-03-08T14:11:26;8.90;;;7.32;;
21647;SDS011;10985;54.182;7.890;2024-03-08T14:13:52;7.82;;;7.03;;
21647;SDS011;10985;54.182;7.890;2024-03-08T14:16:18;8.75;;;7.82;;
21647;SDS011;10985;54.182;7.890;2024-03-08T14:18:44;8.40;;;7.65;;
21647;SDS011;10985;54.182;7.890;2024-03-08T14:21:10;9.63;;;8.63;;
21647;SDS011;10985;54.182;7.890;2024-03-08T14:23:35;11.02;;;9.88;;
21647;SDS011;10985;54.182;7.890;2024-03-08T14:26:01;11.85;;;10.32;;
21647;SDS011;10985;54.182;7.890;2024-03-08T14:28:32;11.15;;;9.85;;
21647;SDS011;10985;54.182;7.890;2024-03-08T14:30:57;10.35;;;9.27;;
21647;SDS011;10985;54.182;7.890;2024-03-08T14:33:23;13.25;;;10.00;;
21647;SDS011;10985;54.182;7.890;2024-03-08T14:35:50;10.48;;;9.43;;
21647;SDS011;10985;54.182;7.890;2024-03-08T14:38:16;11.50;;;9.88;;